createdAt,value
2023-05-23T00:00:03.340Z,6.00
2023-05-23T00:02:57.764Z,7.00
2023-05-23T00:05:31.079Z,7.90
2023-05-23T00:07:51.296Z,6.50
2023-05-23T00:10:17.209Z,4.40
2023-05-23T00:12:38.816Z,6.80
2023-05-23T00:15:11.277Z,6.50
2023-05-23T00:17:33.172Z,6.30
2023-05-23T00:19:59.305Z,5.30
2023-05-23T00:22:34.297Z,7.70
2023-05-23T00:24:52.588Z,10.90
2023-05-23T00:27:18.361Z,7.30
2023-05-23T00:29:45.410Z,7.40
2023-05-23T00:32:13.736Z,8.20
2023-05-23T00:34:33.940Z,7.50
2023-05-23T00:37:01.401Z,9.50
2023-05-23T00:39:20.675Z,10.40
2023-05-23T00:41:38.981Z,7.60
2023-05-23T00:44:07.122Z,8.70
2023-05-23T00:46:34.232Z,7.40
2023-05-23T00:48:53.620Z,7.90
2023-05-23T00:51:20.012Z,7.10
2023-05-23T00:53:40.038Z,6.50
2023-05-23T00:56:07.197Z,4.90
2023-05-23T00:58:39.074Z,6.70
2023-05-23T01:01:10.922Z,10.00
2023-05-23T01:03:46.910Z,11.20
2023-05-23T01:06:18.787Z,10.70
2023-05-23T01:08:46.349Z,7.60
2023-05-23T01:11:23.479Z,6.80
2023-05-23T01:13:50.077Z,8.90
2023-05-23T01:16:32.513Z,7.80
2023-05-23T01:19:01.351Z,7.00
2023-05-23T01:21:28.733Z,7.80
2023-05-23T01:24:39.076Z,8.90
2023-05-23T01:27:13.056Z,7.00
2023-05-23T01:29:38.278Z,6.50
2023-05-23T01:32:15.665Z,6.20
2023-05-23T01:34:42.478Z,7.30
2023-05-23T01:37:03.465Z,8.90
2023-05-23T01:39:36.779Z,7.50
2023-05-23T01:42:08.075Z,9.80
2023-05-23T01:44:36.209Z,7.20
2023-05-23T01:46:55.730Z,8.20
2023-05-23T01:49:30.044Z,8.90
2023-05-23T01:52:05.786Z,8.50
2023-05-23T01:54:33.771Z,8.50
2023-05-23T01:57:09.522Z,6.40
2023-05-23T01:59:44.125Z,7.40
2023-05-23T02:02:04.422Z,8.90
2023-05-23T02:04:34.102Z,9.60
2023-05-23T02:07:09.077Z,7.30
2023-05-23T02:09:35.681Z,8.20
2023-05-23T02:11:55.408Z,8.80
2023-05-23T02:14:16.610Z,8.80
2023-05-23T02:16:37.653Z,9.50
2023-05-23T02:19:06.223Z,7.10
2023-05-23T02:21:35.057Z,7.00
2023-05-23T02:24:00.567Z,4.70
2023-05-23T02:26:28.727Z,5.80
2023-05-23T02:28:48.113Z,6.30
2023-05-23T02:31:14.807Z,7.80
2023-05-23T02:33:49.055Z,7.20
2023-05-23T02:36:23.844Z,8.80
2023-05-23T02:38:58.708Z,6.50
2023-05-23T02:41:31.381Z,8.60
2023-05-23T02:44:04.496Z,7.20
2023-05-23T02:46:25.845Z,7.10
2023-05-23T02:48:50.436Z,8.70
2023-05-23T02:51:17.090Z,7.80
2023-05-23T02:53:43.518Z,8.30
2023-05-23T02:56:18.812Z,6.60
2023-05-23T02:58:39.602Z,4.60
2023-05-23T03:01:13.231Z,7.50
2023-05-23T03:03:47.972Z,9.90
2023-05-23T03:06:15.699Z,12.40
2023-05-23T03:08:40.548Z,10.20
2023-05-23T03:10:59.030Z,11.80
2023-05-23T03:13:26.509Z,12.50
2023-05-23T03:15:54.322Z,14.50
2023-05-23T03:18:21.420Z,14.20
2023-05-23T03:20:57.017Z,11.10
2023-05-23T03:23:30.956Z,10.10
2023-05-23T03:25:51.230Z,3.80
2023-05-23T03:28:25.496Z,3.70
2023-05-23T03:30:47.361Z,3.90
2023-05-23T03:33:09.818Z,3.10
2023-05-23T03:35:35.337Z,4.30
2023-05-23T03:38:09.859Z,5.50
2023-05-23T03:40:46.214Z,3.90
2023-05-23T03:45:42.380Z,1.50
2023-05-23T03:48:03.916Z,4.60
2023-05-23T03:50:32.010Z,4.10
2023-05-23T03:52:54.352Z,6.90
2023-05-23T03:55:28.577Z,8.30
2023-05-23T03:58:14.283Z,9.30
2023-05-23T04:00:49.509Z,11.40
2023-05-23T04:03:25.049Z,13.30
2023-05-23T04:05:58.887Z,10.30
2023-05-23T04:08:27.044Z,8.70
2023-05-23T04:11:01.238Z,3.40
2023-05-23T04:13:35.777Z,2.80
2023-05-23T04:16:06.765Z,3.60
2023-05-23T04:18:40.951Z,3.60
2023-05-23T04:21:10.357Z,3.00
2023-05-23T04:23:37.951Z,2.20
2023-05-23T04:25:58.647Z,3.60
2023-05-23T04:28:34.198Z,2.70
2023-05-23T04:31:09.748Z,5.00
2023-05-23T04:33:36.083Z,3.90
2023-05-23T04:36:01.239Z,6.50
2023-05-23T04:38:30.480Z,3.80
2023-05-23T04:41:04.366Z,8.90
2023-05-23T04:43:59.294Z,4.50
2023-05-23T04:46:37.857Z,4.20
2023-05-23T04:49:14.101Z,4.00
2023-05-23T04:51:41.364Z,5.50
2023-05-23T04:54:27.152Z,6.00
2023-05-23T04:56:58.528Z,6.00
2023-05-23T04:59:33.243Z,3.60
2023-05-23T05:01:55.882Z,2.30
2023-05-23T05:06:39.490Z,2.40
2023-05-23T05:09:11.067Z,4.00
2023-05-23T05:11:45.860Z,4.40
2023-05-23T05:14:20.337Z,3.50
2023-05-23T05:16:55.710Z,2.40
2023-05-23T05:19:19.731Z,3.10
2023-05-23T05:21:54.667Z,2.60
2023-05-23T05:24:14.865Z,3.80
2023-05-23T05:26:42.052Z,3.20
2023-05-23T05:29:15.584Z,2.80
2023-05-23T05:31:37.005Z,2.70
2023-05-23T05:33:56.636Z,7.70
2023-05-23T05:36:24.504Z,8.50
2023-05-23T05:38:59.474Z,4.00
2023-05-23T05:41:32.791Z,4.70
2023-05-23T05:44:06.846Z,9.00
2023-05-23T05:46:27.814Z,12.70
2023-05-23T05:49:03.102Z,9.70
2023-05-23T05:51:33.275Z,10.60
2023-05-23T05:53:53.356Z,10.20
2023-05-23T05:56:29.189Z,6.20
2023-05-23T05:59:04.849Z,5.20
2023-05-23T06:01:40.494Z,3.40
2023-05-23T06:04:16.149Z,3.10
2023-05-23T06:06:45.457Z,5.10
2023-05-23T06:09:19.167Z,5.10
2023-05-23T06:11:41.169Z,7.70
2023-05-23T06:14:07.034Z,6.80
2023-05-23T06:16:37.225Z,7.40
2023-05-23T06:19:12.467Z,6.00
2023-05-23T06:21:33.421Z,6.00
2023-05-23T06:23:55.842Z,4.40
2023-05-23T06:26:29.295Z,4.20
2023-05-23T06:29:04.235Z,5.30
2023-05-23T06:31:38.057Z,4.40
2023-05-23T06:34:12.597Z,5.50
2023-05-23T06:36:48.080Z,5.20
2023-05-23T06:39:22.828Z,6.50
2023-05-23T06:41:57.607Z,7.10
2023-05-23T06:44:32.628Z,5.70
2023-05-23T06:47:06.983Z,7.80
2023-05-23T06:49:30.730Z,10.20
2023-05-23T06:52:06.821Z,10.60
2023-05-23T06:54:43.451Z,12.90
2023-05-23T06:57:11.764Z,15.50
2023-05-23T06:59:44.033Z,12.40
2023-05-23T07:02:19.103Z,13.90
2023-05-23T07:04:54.021Z,10.80
2023-05-23T07:07:29.709Z,8.60
2023-05-23T07:10:04.419Z,21.20
2023-05-23T07:12:40.311Z,12.50
2023-05-23T07:15:17.568Z,6.90
2023-05-23T07:17:56.829Z,4.40
2023-05-23T07:20:32.418Z,4.60
2023-05-23T07:23:07.329Z,4.60
2023-05-23T07:25:44.563Z,3.20
2023-05-23T07:28:28.748Z,4.80
2023-05-23T07:31:02.971Z,4.00
2023-05-23T07:33:26.203Z,6.40
2023-05-23T07:36:01.718Z,6.20
2023-05-23T07:38:37.208Z,7.10
2023-05-23T07:41:11.451Z,4.90
2023-05-23T07:43:32.728Z,6.90
2023-05-23T07:46:04.107Z,9.10
2023-05-23T07:48:30.956Z,8.70
2023-05-23T07:51:05.847Z,9.40
2023-05-23T07:53:41.437Z,10.40
2023-05-23T07:56:17.069Z,10.50
2023-05-23T07:58:51.288Z,10.50
2023-05-23T08:01:11.770Z,7.20
2023-05-23T08:04:06.843Z,8.30
2023-05-23T08:06:29.928Z,5.30
2023-05-23T08:09:03.268Z,7.00
2023-05-23T08:11:36.736Z,8.80
2023-05-23T08:14:01.723Z,5.40
2023-05-23T08:16:40.544Z,7.70
2023-05-23T08:19:16.871Z,5.60
2023-05-23T08:21:43.671Z,3.50
2023-05-23T08:24:18.246Z,3.70
2023-05-23T08:26:53.831Z,2.70
2023-05-23T08:29:14.774Z,1.90
2023-05-23T08:31:48.867Z,2.00
2023-05-23T08:34:23.384Z,1.80
2023-05-23T08:36:57.697Z,1.70
2023-05-23T08:39:26.695Z,2.00
2023-05-23T08:42:05.594Z,2.80
2023-05-23T08:44:33.238Z,2.60
2023-05-23T08:47:06.774Z,3.40
2023-05-23T08:49:43.791Z,1.50
2023-05-23T08:52:21.570Z,1.90
2023-05-23T08:54:49.010Z,2.00
2023-05-23T08:57:12.277Z,2.80
2023-05-23T08:59:40.202Z,12.50
2023-05-23T09:02:06.677Z,6.50
2023-05-23T09:04:42.057Z,6.00
2023-05-23T09:07:04.161Z,6.30
2023-05-23T09:09:26.691Z,6.50
2023-05-23T09:11:53.930Z,6.20
2023-05-23T09:14:27.979Z,3.10
2023-05-23T09:16:57.429Z,2.90
2023-05-23T09:19:27.189Z,3.30
2023-05-23T09:21:54.943Z,3.50
2023-05-23T09:24:26.015Z,7.10
2023-05-23T09:26:56.630Z,12.70
2023-05-23T09:29:32.430Z,8.50
2023-05-23T09:32:17.120Z,6.10
2023-05-23T09:35:01.529Z,5.50
2023-05-23T09:37:28.788Z,5.90
2023-05-23T09:40:04.562Z,7.40
2023-05-23T09:42:45.013Z,7.20
2023-05-23T09:45:20.512Z,7.20
2023-05-23T09:48:00.082Z,7.90
2023-05-23T09:50:24.035Z,4.40
2023-05-23T09:52:49.965Z,4.20
2023-05-23T09:55:09.371Z,5.10
2023-05-23T09:57:33.111Z,3.50
2023-05-23T10:00:07.964Z,2.30
2023-05-23T10:05:38.254Z,11.20
2023-05-23T10:08:11.980Z,6.20
2023-05-23T10:10:52.399Z,7.60
2023-05-23T10:13:23.977Z,8.00
2023-05-23T10:15:47.040Z,6.00
2023-05-23T10:18:20.386Z,6.20
2023-05-23T10:20:43.659Z,6.00
2023-05-23T10:23:06.840Z,8.60
2023-05-23T10:25:38.981Z,10.00
2023-05-23T10:28:04.328Z,7.40
2023-05-23T10:30:41.609Z,6.70
2023-05-23T10:33:05.550Z,5.00
2023-05-23T10:35:46.406Z,3.60
2023-05-23T10:38:23.956Z,2.60
2023-05-23T10:41:04.924Z,2.80
2023-05-23T10:43:34.977Z,2.50
2023-05-23T10:45:56.093Z,7.80
2023-05-23T10:48:26.526Z,10.30
2023-05-23T10:50:47.985Z,4.90
2023-05-23T10:53:23.268Z,3.90
2023-05-23T10:55:55.697Z,2.90
2023-05-23T10:58:24.210Z,2.30
2023-05-23T11:00:50.816Z,2.30
2023-05-23T11:03:17.804Z,1.50
2023-05-23T11:05:56.258Z,1.30
2023-05-23T11:08:18.973Z,2.60
2023-05-23T11:11:07.283Z,2.20
2023-05-23T11:14:03.916Z,3.50
2023-05-23T11:16:44.462Z,4.70
2023-05-23T11:19:34.171Z,3.00
2023-05-23T11:22:08.678Z,1.50
2023-05-23T11:24:59.975Z,1.90
2023-05-23T11:27:39.003Z,5.00
2023-05-23T11:30:08.403Z,4.80
2023-05-23T11:32:36.589Z,1.50
2023-05-23T11:35:00.033Z,2.20
2023-05-23T11:37:27.436Z,1.70
2023-05-23T11:39:50.429Z,1.60
2023-05-23T11:42:25.856Z,1.40
2023-05-23T11:44:59.981Z,1.90
2023-05-23T11:47:32.296Z,1.50
2023-05-23T11:50:05.758Z,1.80
2023-05-23T11:52:41.743Z,1.80
2023-05-23T11:55:02.847Z,2.10
2023-05-23T11:57:41.309Z,1.70
2023-05-23T12:00:12.623Z,2.10
2023-05-23T12:02:51.389Z,1.70
2023-05-23T12:05:19.450Z,2.10
2023-05-23T12:07:46.524Z,2.00
2023-05-23T12:10:14.106Z,1.70
2023-05-23T12:12:44.063Z,1.80
2023-05-23T12:15:18.662Z,2.50
2023-05-23T12:17:40.680Z,2.10
2023-05-23T12:20:11.999Z,2.10
2023-05-23T12:22:35.809Z,2.10
2023-05-23T12:25:11.957Z,2.60
2023-05-23T12:27:45.151Z,2.30
2023-05-23T12:30:20.674Z,1.70
2023-05-23T12:32:45.950Z,1.70
2023-05-23T12:35:11.982Z,1.80
2023-05-23T12:37:34.509Z,1.70
2023-05-23T12:40:01.579Z,1.80
2023-05-23T12:42:47.060Z,1.60
2023-05-23T12:45:23.931Z,2.20
2023-05-23T12:47:53.641Z,1.20
2023-05-23T12:50:21.341Z,1.90
2023-05-23T12:52:49.770Z,2.20
2023-05-23T12:55:25.020Z,1.90
2023-05-23T12:57:59.392Z,1.80
2023-05-23T13:00:33.677Z,1.80
2023-05-23T13:02:59.883Z,2.40
2023-05-23T13:05:29.708Z,2.00
2023-05-23T13:07:56.683Z,1.80
2023-05-23T13:10:27.749Z,1.90
2023-05-23T13:13:06.058Z,2.60
2023-05-23T13:15:34.870Z,2.70
2023-05-23T13:17:55.902Z,1.90
2023-05-23T13:20:23.383Z,2.40
2023-05-23T13:22:51.111Z,2.10
2023-05-23T13:25:24.940Z,2.30
2023-05-23T13:27:58.464Z,2.90
2023-05-23T13:30:32.650Z,2.60
2023-05-23T13:32:58.702Z,2.50
2023-05-23T13:35:33.140Z,1.80
2023-05-23T13:38:01.780Z,1.50
2023-05-23T13:40:36.015Z,2.40
2023-05-23T13:43:12.611Z,2.10
2023-05-23T13:45:48.467Z,2.00
2023-05-23T13:48:16.191Z,3.90
2023-05-23T13:50:46.067Z,2.50
2023-05-23T13:53:16.459Z,2.50
2023-05-23T13:55:51.870Z,2.20
2023-05-23T13:58:15.261Z,2.10
2023-05-23T14:00:50.487Z,2.00
2023-05-23T14:03:26.410Z,1.50
2023-05-23T14:06:00.342Z,1.90
2023-05-23T14:08:33.861Z,2.10
2023-05-23T14:11:01.503Z,2.10
2023-05-23T14:13:35.923Z,2.20
2023-05-23T14:16:03.123Z,2.70
2023-05-23T14:18:32.807Z,2.40
2023-05-23T14:21:04.253Z,3.00
2023-05-23T14:23:26.026Z,3.80
2023-05-23T14:25:48.005Z,3.00
2023-05-23T14:28:16.816Z,2.50
2023-05-23T14:30:33.967Z,3.00
2023-05-23T14:32:53.159Z,3.40
2023-05-23T14:35:19.079Z,4.70
2023-05-23T14:37:54.066Z,5.30
2023-05-23T14:40:29.758Z,3.20
2023-05-23T14:42:58.686Z,3.10
2023-05-23T14:45:32.919Z,3.50
2023-05-23T14:48:09.159Z,4.90
2023-05-23T14:50:44.167Z,4.70
2023-05-23T14:53:17.942Z,4.70
2023-05-23T14:55:53.072Z,4.30
2023-05-23T14:58:14.272Z,6.50
2023-05-23T15:00:34.342Z,5.20
2023-05-23T15:03:09.392Z,4.50
2023-05-23T15:05:31.849Z,3.70
2023-05-23T15:08:07.503Z,4.80
2023-05-23T15:10:36.498Z,4.20
2023-05-23T15:13:05.443Z,2.90
2023-05-23T15:15:41.981Z,7.00
2023-05-23T15:18:19.010Z,6.80
2023-05-23T15:21:02.129Z,12.90
2023-05-23T15:23:34.092Z,16.60
2023-05-23T15:26:00.821Z,18.30
2023-05-23T15:28:34.480Z,10.50
2023-05-23T15:30:55.350Z,9.40
2023-05-23T15:33:23.045Z,13.70
2023-05-23T15:35:44.614Z,12.90
2023-05-23T15:38:05.072Z,10.30
2023-05-23T15:40:31.308Z,7.70
2023-05-23T15:42:54.271Z,10.40
2023-05-23T15:45:23.365Z,5.70
2023-05-23T15:47:45.332Z,10.10
2023-05-23T15:50:14.434Z,8.80
2023-05-23T15:52:38.773Z,5.80
2023-05-23T15:55:14.668Z,4.30
2023-05-23T15:57:41.955Z,4.10
2023-05-23T16:00:04.998Z,9.50
2023-05-23T16:02:28.134Z,6.20
2023-05-23T16:04:49.918Z,6.00
2023-05-23T16:07:17.646Z,3.30
2023-05-23T16:09:51.872Z,4.50
2023-05-23T16:12:17.178Z,7.80
2023-05-23T16:14:48.956Z,6.40
2023-05-23T16:17:16.238Z,9.70
2023-05-23T16:19:50.605Z,7.20
2023-05-23T16:22:18.537Z,8.00
2023-05-23T16:24:44.883Z,12.20
2023-05-23T16:27:20.657Z,10.10
2023-05-23T16:29:41.349Z,8.40
2023-05-23T16:32:09.636Z,9.90
2023-05-23T16:34:33.072Z,11.30
2023-05-23T16:37:08.786Z,13.70
2023-05-23T16:39:32.544Z,9.80
2023-05-23T16:42:00.340Z,6.50
2023-05-23T16:44:33.188Z,4.10
2023-05-23T16:47:07.581Z,4.30
2023-05-23T16:49:28.069Z,3.70
2023-05-23T16:51:53.623Z,3.00
2023-05-23T16:54:21.167Z,5.80
2023-05-23T16:56:41.227Z,6.10
2023-05-23T16:59:02.123Z,4.10
2023-05-23T17:01:35.168Z,3.50
2023-05-23T17:04:02.737Z,5.50
2023-05-23T17:06:24.178Z,8.20
2023-05-23T17:08:49.979Z,5.60
2023-05-23T17:11:24.888Z,7.00
2023-05-23T17:13:55.947Z,10.10
2023-05-23T17:16:34.417Z,5.40
2023-05-23T17:18:59.315Z,5.40
2023-05-23T17:21:27.758Z,7.80
2023-05-23T17:24:02.553Z,8.20
2023-05-23T17:26:34.448Z,6.60
2023-05-23T17:29:02.797Z,8.30
2023-05-23T17:31:38.052Z,9.40
2023-05-23T17:34:01.560Z,6.80
2023-05-23T17:36:37.220Z,6.60
2023-05-23T17:38:58.624Z,9.20
2023-05-23T17:41:33.331Z,9.40
2023-05-23T17:44:07.736Z,10.70
2023-05-23T17:46:30.722Z,9.10
2023-05-23T17:48:58.315Z,10.40
2023-05-23T17:51:32.069Z,7.20
2023-05-23T17:53:54.675Z,7.40
2023-05-23T17:56:20.952Z,8.50
2023-05-23T17:58:41.682Z,6.60
2023-05-23T18:01:17.314Z,7.50
2023-05-23T18:03:50.956Z,7.00
2023-05-23T18:06:14.647Z,8.30
2023-05-23T18:08:36.468Z,5.30
2023-05-23T18:11:01.861Z,7.50
2023-05-23T18:13:28.176Z,9.00
2023-05-23T18:15:53.717Z,6.80
2023-05-23T18:18:21.665Z,7.70
2023-05-23T18:20:55.626Z,6.50
2023-05-23T18:23:18.816Z,4.50
2023-05-23T18:25:53.896Z,5.40
2023-05-23T18:28:22.677Z,5.50
2023-05-23T18:30:45.447Z,7.80
2023-05-23T18:33:17.771Z,6.40
2023-05-23T18:35:52.116Z,5.00
2023-05-23T18:38:15.418Z,7.70
2023-05-23T18:40:50.901Z,4.90
2023-05-23T18:43:10.450Z,6.60
2023-05-23T18:45:30.179Z,7.90
2023-05-23T18:47:56.102Z,7.00
2023-05-23T18:50:21.471Z,8.50
2023-05-23T18:52:43.534Z,8.50
2023-05-23T18:55:09.349Z,8.30
2023-05-23T18:57:36.408Z,5.80
2023-05-23T19:00:10.249Z,8.00
2023-05-23T19:02:45.431Z,10.20
2023-05-23T19:05:15.839Z,7.70
2023-05-23T19:07:42.609Z,8.10
2023-05-23T19:10:18.302Z,7.00
2023-05-23T19:12:52.534Z,8.70
2023-05-23T19:15:14.076Z,7.90
2023-05-23T19:17:42.406Z,4.60
2023-05-23T19:20:03.055Z,6.30
2023-05-23T19:22:43.072Z,7.90
2023-05-23T19:25:19.517Z,6.60
2023-05-23T19:27:41.750Z,5.80
2023-05-23T19:30:06.268Z,8.30
2023-05-23T19:32:27.329Z,9.60
2023-05-23T19:35:01.520Z,9.30
2023-05-23T19:37:35.609Z,8.20
2023-05-23T19:40:07.349Z,6.10
2023-05-23T19:42:43.033Z,6.40
2023-05-23T19:45:01.914Z,6.20
2023-05-23T19:47:36.254Z,7.00
2023-05-23T19:50:03.316Z,9.70
2023-05-23T19:52:38.634Z,8.50
2023-05-23T19:55:03.729Z,5.90
2023-05-23T19:57:37.648Z,4.30
2023-05-23T20:00:12.660Z,5.30
2023-05-23T20:02:48.771Z,4.60
2023-05-23T20:05:23.891Z,7.30
2023-05-23T20:07:43.885Z,6.80
2023-05-23T20:10:18.507Z,4.10
2023-05-23T20:12:50.923Z,5.40
2023-05-23T20:15:38.564Z,7.30
2023-05-23T20:18:12.685Z,5.90
2023-05-23T20:20:36.778Z,7.90
2023-05-23T20:23:05.676Z,6.00
2023-05-23T20:25:32.720Z,5.50
2023-05-23T20:28:07.704Z,4.80
2023-05-23T20:30:28.050Z,5.00
2023-05-23T20:32:54.878Z,6.00
2023-05-23T20:35:22.124Z,4.10
2023-05-23T20:37:48.884Z,5.50
2023-05-23T20:40:26.741Z,4.80
2023-05-23T20:42:48.140Z,4.30
2023-05-23T20:45:21.601Z,7.80
2023-05-23T20:47:44.672Z,6.00
2023-05-23T20:50:04.802Z,5.60
2023-05-23T20:52:42.686Z,6.10
2023-05-23T20:55:18.890Z,5.70
2023-05-23T20:57:43.969Z,5.10
2023-05-23T21:00:22.793Z,5.10
2023-05-23T21:02:42.636Z,5.00
2023-05-23T21:05:10.541Z,4.50
2023-05-23T21:07:33.072Z,3.50
2023-05-23T21:10:03.869Z,7.30
2023-05-23T21:12:29.260Z,7.00
2023-05-23T21:15:02.960Z,5.10
2023-05-23T21:17:24.425Z,4.40
2023-05-23T21:19:52.288Z,4.90
2023-05-23T21:22:24.650Z,4.20
2023-05-23T21:24:42.978Z,4.00
2023-05-23T21:27:04.694Z,7.70
2023-05-23T21:29:32.695Z,3.10
2023-05-23T21:31:54.948Z,5.20
2023-05-23T21:34:23.791Z,5.80
2023-05-23T21:36:52.333Z,6.60
2023-05-23T21:39:20.178Z,5.50
2023-05-23T21:41:55.966Z,5.10
2023-05-23T21:44:22.317Z,6.30
2023-05-23T21:46:49.928Z,4.10
2023-05-23T21:49:13.559Z,3.60
2023-05-23T21:51:41.122Z,5.30
2023-05-23T21:54:15.543Z,5.30
2023-05-23T21:56:46.254Z,5.20
2023-05-23T21:59:17.405Z,4.30
2023-05-23T22:01:44.266Z,5.50
2023-05-23T22:04:21.038Z,3.70
2023-05-23T22:06:53.082Z,2.90
2023-05-23T22:09:27.624Z,4.00
2023-05-23T22:11:49.208Z,5.00
2023-05-23T22:14:08.551Z,5.40
2023-05-23T22:16:30.145Z,3.60
2023-05-23T22:19:01.686Z,5.40
2023-05-23T22:21:24.031Z,9.10
2023-05-23T22:23:58.914Z,6.60
2023-05-23T22:26:23.083Z,5.70
2023-05-23T22:28:56.835Z,6.70
2023-05-23T22:31:22.676Z,7.90
2023-05-23T22:33:50.196Z,4.80
2023-05-23T22:36:23.040Z,4.70
2023-05-23T22:38:44.392Z,4.30
2023-05-23T22:41:11.466Z,5.50
2023-05-23T22:43:34.585Z,6.30
2023-05-23T22:46:04.676Z,4.50
2023-05-23T22:48:29.143Z,4.30
2023-05-23T22:50:49.773Z,7.10
2023-05-23T22:53:23.917Z,8.00
2023-05-23T22:55:50.010Z,8.20
2023-05-23T22:58:17.393Z,5.90
2023-05-23T23:00:36.960Z,5.10
2023-05-23T23:02:56.854Z,8.50
2023-05-23T23:05:27.303Z,4.80
2023-05-23T23:07:53.363Z,6.90
2023-05-23T23:10:26.584Z,6.70
2023-05-23T23:12:45.809Z,7.20
2023-05-23T23:15:20.224Z,8.10
2023-05-23T23:17:50.278Z,8.40
2023-05-23T23:20:18.559Z,8.30
2023-05-23T23:22:37.846Z,8.00
2023-05-23T23:25:14.159Z,10.00
2023-05-23T23:27:43.209Z,8.70
2023-05-23T23:30:12.832Z,7.80
2023-05-23T23:32:46.276Z,8.00
2023-05-23T23:35:14.196Z,6.80
2023-05-23T23:37:48.230Z,8.30
2023-05-23T23:40:13.524Z,6.70
2023-05-23T23:42:46.352Z,7.70
2023-05-23T23:45:21.250Z,8.40
2023-05-23T23:47:49.354Z,9.00
2023-05-23T23:50:17.888Z,7.50
2023-05-23T23:52:38.464Z,10.70
2023-05-23T23:54:57.897Z,10.00
2023-05-23T23:57:22.155Z,8.40
2023-05-23T23:59:58.303Z,8.80
